sensor_id;sensor_type;location;lat;lon;timestamp;P1;durP1;ratioP1;P2;durP2;ratioP2
62006;SDS011;47963;53.008;6.754;2022-12-18T00:02:23;78.53;;;46.03;;
62006;SDS011;47963;53.008;6.754;2022-12-18T00:04:48;81.85;;;48.47;;
62006;SDS011;47963;53.008;6.754;2022-12-18T00:07:14;74.78;;;44.65;;
62006;SDS011;47963;53.008;6.754;2022-12-18T00:09:39;79.93;;;47.08;;
62006;SDS011;47963;53.008;6.754;2022-12-18T00:12:05;77.68;;;46.30;;
62006;SDS011;47963;53.008;6.754;2022-12-18T00:14:31;74.65;;;46.47;;
62006;SDS011;47963;53.008;6.754;2022-12-18T00:16:57;77.70;;;47.15;;
62006;SDS011;47963;53.008;6.754;2022-12-18T00:19:25;71.97;;;45.17;;
62006;SDS011;47963;53.008;6.754;2022-12-18T00:21:51;82.15;;;47.00;;
62006;SDS011;47963;53.008;6.754;2022-12-18T00:24:16;70.43;;;44.00;;
62006;SDS011;47963;53.008;6.754;2022-12-18T00:26:42;78.88;;;45.22;;
62006;SDS011;47963;53.008;6.754;2022-12-18T00:29:10;69.57;;;43.03;;
62006;SDS011;47963;53.008;6.754;2022-12-18T00:31:38;80.32;;;46.42;;
62006;SDS011;47963;53.008;6.754;2022-12-18T00:34:05;75.53;;;45.15;;
62006;SDS011;47963;53.008;6.754;2022-12-18T00:36:33;74.90;;;43.65;;
62006;SDS011;47963;53.008;6.754;2022-12-18T00:39:00;78.85;;;45.63;;
62006;SDS011;47963;53.008;6.754;2022-12-18T00:41:26;74.35;;;44.40;;
62006;SDS011;47963;53.008;6.754;2022-12-18T00:44:12;78.18;;;45.65;;
62006;SDS011;47963;53.008;6.754;2022-12-18T00:46:39;81.10;;;46.15;;
62006;SDS011;47963;53.008;6.754;2022-12-18T00:49:05;83.35;;;45.78;;
62006;SDS011;47963;53.008;6.754;2022-12-18T00:51:31;77.78;;;46.03;;
62006;SDS011;47963;53.008;6.754;2022-12-18T00:53:57;84.78;;;47.00;;
62006;SDS011;47963;53.008;6.754;2022-12-18T00:56:23;87.35;;;47.85;;
62006;SDS011;47963;53.008;6.754;2022-12-18T00:58:49;83.82;;;47.05;;
62006;SDS011;47963;53.008;6.754;2022-12-18T01:01:15;77.88;;;46.33;;
62006;SDS011;47963;53.008;6.754;2022-12-18T01:03:41;82.32;;;47.63;;
62006;SDS011;47963;53.008;6.754;2022-12-18T01:06:08;85.80;;;48.15;;
62006;SDS011;47963;53.008;6.754;2022-12-18T01:08:37;83.35;;;47.83;;
62006;SDS011;47963;53.008;6.754;2022-12-18T01:11:09;86.25;;;48.75;;
62006;SDS011;47963;53.008;6.754;2022-12-18T01:13:37;80.43;;;46.55;;
62006;SDS011;47963;53.008;6.754;2022-12-18T01:16:04;89.68;;;48.90;;
62006;SDS011;47963;53.008;6.754;2022-12-18T01:18:30;81.60;;;47.25;;
62006;SDS011;47963;53.008;6.754;2022-12-18T01:20:56;82.97;;;47.42;;
62006;SDS011;47963;53.008;6.754;2022-12-18T01:23:21;86.03;;;47.75;;
62006;SDS011;47963;53.008;6.754;2022-12-18T01:25:47;79.43;;;47.50;;
62006;SDS011;47963;53.008;6.754;2022-12-18T01:28:13;88.05;;;48.53;;
62006;SDS011;47963;53.008;6.754;2022-12-18T01:30:39;90.60;;;48.33;;
62006;SDS011;47963;53.008;6.754;2022-12-18T01:33:04;83.00;;;47.83;;
62006;SDS011;47963;53.008;6.754;2022-12-18T01:35:30;92.88;;;51.50;;
62006;SDS011;47963;53.008;6.754;2022-12-18T01:37:56;88.55;;;50.45;;
62006;SDS011;47963;53.008;6.754;2022-12-18T01:40:22;89.10;;;51.95;;
62006;SDS011;47963;53.008;6.754;2022-12-18T01:42:51;79.07;;;49.00;;
62006;SDS011;47963;53.008;6.754;2022-12-18T01:47:44;94.82;;;53.05;;
62006;SDS011;47963;53.008;6.754;2022-12-18T01:50:13;97.85;;;54.30;;
62006;SDS011;47963;53.008;6.754;2022-12-18T01:52:49;95.85;;;53.03;;
62006;SDS011;47963;53.008;6.754;2022-12-18T01:55:19;99.53;;;54.83;;
62006;SDS011;47963;53.008;6.754;2022-12-18T01:57:49;95.78;;;53.50;;
62006;SDS011;47963;53.008;6.754;2022-12-18T02:00:20;90.45;;;51.90;;
62006;SDS011;47963;53.008;6.754;2022-12-18T02:02:47;84.65;;;49.85;;
62006;SDS011;47963;53.008;6.754;2022-12-18T02:05:24;88.03;;;51.83;;
62006;SDS011;47963;53.008;6.754;2022-12-18T02:07:56;80.25;;;50.63;;
62006;SDS011;47963;53.008;6.754;2022-12-18T02:10:35;84.22;;;50.08;;
62006;SDS011;47963;53.008;6.754;2022-12-18T02:13:20;93.93;;;55.10;;
62006;SDS011;47963;53.008;6.754;2022-12-18T02:18:38;84.10;;;51.60;;
62006;SDS011;47963;53.008;6.754;2022-12-18T02:26:37;84.57;;;50.45;;
62006;SDS011;47963;53.008;6.754;2022-12-18T02:29:24;88.32;;;51.67;;
62006;SDS011;47963;53.008;6.754;2022-12-18T02:31:56;84.72;;;50.40;;
62006;SDS011;47963;53.008;6.754;2022-12-18T02:34:24;80.07;;;48.90;;
62006;SDS011;47963;53.008;6.754;2022-12-18T02:36:53;86.35;;;51.15;;
62006;SDS011;47963;53.008;6.754;2022-12-18T02:39:20;84.28;;;49.35;;
62006;SDS011;47963;53.008;6.754;2022-12-18T02:41:48;81.20;;;48.15;;
62006;SDS011;47963;53.008;6.754;2022-12-18T02:44:15;84.35;;;48.95;;
62006;SDS011;47963;53.008;6.754;2022-12-18T02:46:42;76.88;;;47.42;;
62006;SDS011;47963;53.008;6.754;2022-12-18T03:00:25;82.82;;;49.67;;
62006;SDS011;47963;53.008;6.754;2022-12-18T03:03:02;79.85;;;49.03;;
62006;SDS011;47963;53.008;6.754;2022-12-18T03:08:10;76.22;;;46.67;;
62006;SDS011;47963;53.008;6.754;2022-12-18T03:10:44;78.95;;;47.50;;
62006;SDS011;47963;53.008;6.754;2022-12-18T03:13:16;73.25;;;45.15;;
62006;SDS011;47963;53.008;6.754;2022-12-18T03:15:48;79.70;;;46.72;;
62006;SDS011;47963;53.008;6.754;2022-12-18T03:18:31;75.90;;;45.63;;
62006;SDS011;47963;53.008;6.754;2022-12-18T03:21:40;75.70;;;46.05;;
62006;SDS011;47963;53.008;6.754;2022-12-18T03:24:57;78.43;;;46.97;;
62006;SDS011;47963;53.008;6.754;2022-12-18T03:27:07;76.40;;;46.10;;
62006;SDS011;47963;53.008;6.754;2022-12-18T03:30:38;70.43;;;43.92;;
62006;SDS011;47963;53.008;6.754;2022-12-18T03:35:28;75.50;;;44.80;;
62006;SDS011;47963;53.008;6.754;2022-12-18T03:37:57;69.25;;;43.35;;
62006;SDS011;47963;53.008;6.754;2022-12-18T03:40:24;72.45;;;44.90;;
62006;SDS011;47963;53.008;6.754;2022-12-18T03:42:58;71.85;;;44.00;;
62006;SDS011;47963;53.008;6.754;2022-12-18T03:45:36;71.72;;;44.92;;
62006;SDS011;47963;53.008;6.754;2022-12-18T03:54:48;64.75;;;42.25;;
62006;SDS011;47963;53.008;6.754;2022-12-18T03:57:37;65.57;;;42.20;;
62006;SDS011;47963;53.008;6.754;2022-12-18T04:00:09;65.50;;;42.50;;
62006;SDS011;47963;53.008;6.754;2022-12-18T04:02:38;65.38;;;42.13;;
62006;SDS011;47963;53.008;6.754;2022-12-18T04:05:10;62.95;;;40.95;;
62006;SDS011;47963;53.008;6.754;2022-12-18T04:07:38;64.95;;;41.53;;
62006;SDS011;47963;53.008;6.754;2022-12-18T04:10:04;60.83;;;41.15;;
62006;SDS011;47963;53.008;6.754;2022-12-18T04:12:33;59.95;;;40.25;;
62006;SDS011;47963;53.008;6.754;2022-12-18T04:14:59;61.95;;;40.17;;
62006;SDS011;47963;53.008;6.754;2022-12-18T04:17:24;59.97;;;39.35;;
62006;SDS011;47963;53.008;6.754;2022-12-18T04:19:50;58.40;;;37.88;;
62006;SDS011;47963;53.008;6.754;2022-12-18T04:22:16;54.95;;;37.28;;
62006;SDS011;47963;53.008;6.754;2022-12-18T04:24:41;55.60;;;38.88;;
62006;SDS011;47963;53.008;6.754;2022-12-18T04:27:07;55.38;;;38.00;;
62006;SDS011;47963;53.008;6.754;2022-12-18T04:29:32;54.25;;;37.15;;
62006;SDS011;47963;53.008;6.754;2022-12-18T04:31:58;57.60;;;38.53;;
62006;SDS011;47963;53.008;6.754;2022-12-18T04:34:24;54.17;;;36.25;;
62006;SDS011;47963;53.008;6.754;2022-12-18T04:36:49;51.80;;;35.83;;
62006;SDS011;47963;53.008;6.754;2022-12-18T04:39:15;51.80;;;35.20;;
62006;SDS011;47963;53.008;6.754;2022-12-18T04:41:41;52.05;;;35.15;;
62006;SDS011;47963;53.008;6.754;2022-12-18T04:44:06;54.30;;;36.70;;
62006;SDS011;47963;53.008;6.754;2022-12-18T04:46:32;50.78;;;34.53;;
62006;SDS011;47963;53.008;6.754;2022-12-18T04:48:57;49.22;;;34.60;;
62006;SDS011;47963;53.008;6.754;2022-12-18T04:51:23;46.78;;;33.33;;
62006;SDS011;47963;53.008;6.754;2022-12-18T04:53:49;45.20;;;32.45;;
62006;SDS011;47963;53.008;6.754;2022-12-18T04:56:15;46.05;;;33.78;;
62006;SDS011;47963;53.008;6.754;2022-12-18T04:58:41;46.72;;;33.72;;
62006;SDS011;47963;53.008;6.754;2022-12-18T05:01:08;48.80;;;34.17;;
62006;SDS011;47963;53.008;6.754;2022-12-18T05:03:35;46.58;;;32.58;;
62006;SDS011;47963;53.008;6.754;2022-12-18T05:06:02;44.92;;;32.78;;
62006;SDS011;47963;53.008;6.754;2022-12-18T05:08:28;45.17;;;32.15;;
62006;SDS011;47963;53.008;6.754;2022-12-18T05:11:00;46.63;;;32.28;;
62006;SDS011;47963;53.008;6.754;2022-12-18T05:13:30;45.38;;;32.33;;
62006;SDS011;47963;53.008;6.754;2022-12-18T05:15:56;45.65;;;32.95;;
62006;SDS011;47963;53.008;6.754;2022-12-18T05:18:22;43.83;;;32.47;;
62006;SDS011;47963;53.008;6.754;2022-12-18T05:20:49;46.55;;;32.33;;
62006;SDS011;47963;53.008;6.754;2022-12-18T05:23:16;46.95;;;32.50;;
62006;SDS011;47963;53.008;6.754;2022-12-18T05:25:42;43.75;;;32.67;;
62006;SDS011;47963;53.008;6.754;2022-12-18T05:28:07;45.38;;;32.40;;
62006;SDS011;47963;53.008;6.754;2022-12-18T05:30:33;42.50;;;31.30;;
62006;SDS011;47963;53.008;6.754;2022-12-18T05:32:59;45.20;;;32.15;;
62006;SDS011;47963;53.008;6.754;2022-12-18T05:35:24;44.30;;;31.95;;
62006;SDS011;47963;53.008;6.754;2022-12-18T05:37:50;46.45;;;32.95;;
62006;SDS011;47963;53.008;6.754;2022-12-18T05:40:16;42.20;;;30.70;;
62006;SDS011;47963;53.008;6.754;2022-12-18T05:42:41;44.22;;;30.58;;
62006;SDS011;47963;53.008;6.754;2022-12-18T05:45:07;42.50;;;30.55;;
62006;SDS011;47963;53.008;6.754;2022-12-18T05:47:33;40.38;;;30.58;;
62006;SDS011;47963;53.008;6.754;2022-12-18T05:50:03;39.40;;;29.13;;
62006;SDS011;47963;53.008;6.754;2022-12-18T05:52:35;40.50;;;29.67;;
62006;SDS011;47963;53.008;6.754;2022-12-18T05:58:36;39.45;;;29.45;;
62006;SDS011;47963;53.008;6.754;2022-12-18T06:01:10;40.15;;;30.42;;
62006;SDS011;47963;53.008;6.754;2022-12-18T06:04:00;40.05;;;30.00;;
62006;SDS011;47963;53.008;6.754;2022-12-18T06:06:26;40.70;;;28.17;;
62006;SDS011;47963;53.008;6.754;2022-12-18T06:08:53;40.15;;;29.30;;
62006;SDS011;47963;53.008;6.754;2022-12-18T06:11:21;38.70;;;27.88;;
62006;SDS011;47963;53.008;6.754;2022-12-18T06:13:50;39.40;;;29.20;;
62006;SDS011;47963;53.008;6.754;2022-12-18T06:16:16;38.70;;;28.58;;
62006;SDS011;47963;53.008;6.754;2022-12-18T06:18:42;39.80;;;28.80;;
62006;SDS011;47963;53.008;6.754;2022-12-18T06:21:08;38.80;;;28.38;;
62006;SDS011;47963;53.008;6.754;2022-12-18T06:23:33;38.40;;;28.95;;
62006;SDS011;47963;53.008;6.754;2022-12-18T06:26:03;35.38;;;26.80;;
62006;SDS011;47963;53.008;6.754;2022-12-18T06:28:30;38.95;;;27.77;;
62006;SDS011;47963;53.008;6.754;2022-12-18T06:30:55;40.25;;;27.90;;
62006;SDS011;47963;53.008;6.754;2022-12-18T06:33:21;38.03;;;27.98;;
62006;SDS011;47963;53.008;6.754;2022-12-18T06:35:50;38.05;;;28.25;;
62006;SDS011;47963;53.008;6.754;2022-12-18T06:38:16;36.28;;;27.08;;
62006;SDS011;47963;53.008;6.754;2022-12-18T06:40:41;37.60;;;27.50;;
62006;SDS011;47963;53.008;6.754;2022-12-18T06:43:07;34.25;;;26.17;;
62006;SDS011;47963;53.008;6.754;2022-12-18T06:45:33;38.08;;;27.52;;
62006;SDS011;47963;53.008;6.754;2022-12-18T06:47:58;34.72;;;26.60;;
62006;SDS011;47963;53.008;6.754;2022-12-18T06:50:24;37.70;;;27.48;;
62006;SDS011;47963;53.008;6.754;2022-12-18T06:52:49;38.38;;;27.70;;
62006;SDS011;47963;53.008;6.754;2022-12-18T06:55:15;35.78;;;27.05;;
62006;SDS011;47963;53.008;6.754;2022-12-18T06:57:41;37.90;;;27.63;;
62006;SDS011;47963;53.008;6.754;2022-12-18T07:00:06;39.75;;;28.67;;
62006;SDS011;47963;53.008;6.754;2022-12-18T07:02:32;39.13;;;28.48;;
62006;SDS011;47963;53.008;6.754;2022-12-18T07:04:58;39.05;;;29.13;;
62006;SDS011;47963;53.008;6.754;2022-12-18T07:07:24;38.30;;;28.30;;
62006;SDS011;47963;53.008;6.754;2022-12-18T07:09:50;38.83;;;28.80;;
62006;SDS011;47963;53.008;6.754;2022-12-18T07:12:16;38.35;;;28.80;;
62006;SDS011;47963;53.008;6.754;2022-12-18T07:14:43;38.88;;;28.42;;
62006;SDS011;47963;53.008;6.754;2022-12-18T07:17:09;37.45;;;28.30;;
62006;SDS011;47963;53.008;6.754;2022-12-18T07:19:35;37.30;;;28.65;;
62006;SDS011;47963;53.008;6.754;2022-12-18T07:22:00;39.95;;;29.20;;
62006;SDS011;47963;53.008;6.754;2022-12-18T07:24:26;40.28;;;31.23;;
62006;SDS011;47963;53.008;6.754;2022-12-18T07:26:52;40.33;;;31.63;;
62006;SDS011;47963;53.008;6.754;2022-12-18T07:29:18;41.15;;;31.85;;
62006;SDS011;47963;53.008;6.754;2022-12-18T07:31:43;38.35;;;29.35;;
62006;SDS011;47963;53.008;6.754;2022-12-18T07:34:10;36.97;;;28.15;;
62006;SDS011;47963;53.008;6.754;2022-12-18T07:36:36;37.65;;;28.35;;
62006;SDS011;47963;53.008;6.754;2022-12-18T07:39:02;38.55;;;27.67;;
62006;SDS011;47963;53.008;6.754;2022-12-18T07:41:28;38.97;;;29.40;;
62006;SDS011;47963;53.008;6.754;2022-12-18T07:43:53;38.33;;;30.27;;
62006;SDS011;47963;53.008;6.754;2022-12-18T07:46:19;34.20;;;26.98;;
62006;SDS011;47963;53.008;6.754;2022-12-18T07:48:45;36.28;;;27.40;;
62006;SDS011;47963;53.008;6.754;2022-12-18T07:51:11;34.80;;;26.30;;
62006;SDS011;47963;53.008;6.754;2022-12-18T07:53:37;36.20;;;27.40;;
62006;SDS011;47963;53.008;6.754;2022-12-18T07:56:07;34.88;;;26.45;;
62006;SDS011;47963;53.008;6.754;2022-12-18T07:58:35;33.03;;;26.53;;
62006;SDS011;47963;53.008;6.754;2022-12-18T08:01:07;36.55;;;26.92;;
62006;SDS011;47963;53.008;6.754;2022-12-18T08:03:35;34.10;;;26.73;;
62006;SDS011;47963;53.008;6.754;2022-12-18T08:06:02;34.22;;;26.70;;
62006;SDS011;47963;53.008;6.754;2022-12-18T08:08:29;31.70;;;25.63;;
62006;SDS011;47963;53.008;6.754;2022-12-18T08:10:56;35.70;;;28.55;;
62006;SDS011;47963;53.008;6.754;2022-12-18T08:13:22;34.25;;;25.95;;
62006;SDS011;47963;53.008;6.754;2022-12-18T08:15:58;34.38;;;27.77;;
62006;SDS011;47963;53.008;6.754;2022-12-18T08:18:25;36.03;;;29.17;;
62006;SDS011;47963;53.008;6.754;2022-12-18T08:20:50;40.78;;;35.65;;
62006;SDS011;47963;53.008;6.754;2022-12-18T08:23:16;40.65;;;35.55;;
62006;SDS011;47963;53.008;6.754;2022-12-18T08:25:42;42.15;;;36.05;;
62006;SDS011;47963;53.008;6.754;2022-12-18T08:28:07;40.97;;;33.97;;
62006;SDS011;47963;53.008;6.754;2022-12-18T08:30:33;36.38;;;30.88;;
62006;SDS011;47963;53.008;6.754;2022-12-18T08:32:59;33.85;;;28.60;;
62006;SDS011;47963;53.008;6.754;2022-12-18T08:35:24;35.85;;;30.60;;
62006;SDS011;47963;53.008;6.754;2022-12-18T08:37:50;35.97;;;28.45;;
62006;SDS011;47963;53.008;6.754;2022-12-18T08:40:16;53.78;;;44.58;;
62006;SDS011;47963;53.008;6.754;2022-12-18T08:42:41;35.97;;;29.65;;
62006;SDS011;47963;53.008;6.754;2022-12-18T08:45:25;31.38;;;25.85;;
62006;SDS011;47963;53.008;6.754;2022-12-18T08:47:57;33.38;;;27.52;;
62006;SDS011;47963;53.008;6.754;2022-12-18T08:50:35;29.20;;;24.42;;
62006;SDS011;47963;53.008;6.754;2022-12-18T08:53:06;32.47;;;26.10;;
62006;SDS011;47963;53.008;6.754;2022-12-18T08:55:55;31.50;;;24.92;;
62006;SDS011;47963;53.008;6.754;2022-12-18T08:59:11;31.25;;;24.38;;
62006;SDS011;47963;53.008;6.754;2022-12-18T09:01:45;35.08;;;28.48;;
62006;SDS011;47963;53.008;6.754;2022-12-18T09:07:49;31.45;;;25.98;;
62006;SDS011;47963;53.008;6.754;2022-12-18T09:13:48;26.65;;;21.65;;
62006;SDS011;47963;53.008;6.754;2022-12-18T09:16:18;26.85;;;22.67;;
62006;SDS011;47963;53.008;6.754;2022-12-18T09:18:45;26.15;;;22.48;;
62006;SDS011;47963;53.008;6.754;2022-12-18T09:21:15;29.45;;;24.05;;
62006;SDS011;47963;53.008;6.754;2022-12-18T09:26:09;25.67;;;20.95;;
62006;SDS011;47963;53.008;6.754;2022-12-18T09:28:35;27.02;;;21.50;;
62006;SDS011;47963;53.008;6.754;2022-12-18T09:31:04;25.35;;;21.27;;
62006;SDS011;47963;53.008;6.754;2022-12-18T09:33:33;26.42;;;21.00;;
62006;SDS011;47963;53.008;6.754;2022-12-18T09:36:04;27.70;;;21.73;;
62006;SDS011;47963;53.008;6.754;2022-12-18T09:38:44;27.00;;;21.42;;
62006;SDS011;47963;53.008;6.754;2022-12-18T09:41:27;26.05;;;20.15;;
62006;SDS011;47963;53.008;6.754;2022-12-18T09:44:30;24.83;;;19.70;;
62006;SDS011;47963;53.008;6.754;2022-12-18T09:47:34;25.13;;;20.13;;
62006;SDS011;47963;53.008;6.754;2022-12-18T09:50:04;25.27;;;21.95;;
62006;SDS011;47963;53.008;6.754;2022-12-18T09:52:41;22.83;;;19.10;;
62006;SDS011;47963;53.008;6.754;2022-12-18T09:57:36;21.42;;;17.15;;
62006;SDS011;47963;53.008;6.754;2022-12-18T10:02:36;19.67;;;16.45;;
62006;SDS011;47963;53.008;6.754;2022-12-18T10:05:06;20.95;;;16.58;;
62006;SDS011;47963;53.008;6.754;2022-12-18T10:07:43;20.33;;;16.45;;
62006;SDS011;47963;53.008;6.754;2022-12-18T10:16:03;18.92;;;15.25;;
62006;SDS011;47963;53.008;6.754;2022-12-18T10:21:56;18.40;;;14.32;;
62006;SDS011;47963;53.008;6.754;2022-12-18T10:27:23;17.55;;;13.88;;
62006;SDS011;47963;53.008;6.754;2022-12-18T10:29:48;18.40;;;13.80;;
62006;SDS011;47963;53.008;6.754;2022-12-18T10:32:14;18.15;;;14.43;;
62006;SDS011;47963;53.008;6.754;2022-12-18T10:34:46;18.58;;;14.50;;
62006;SDS011;47963;53.008;6.754;2022-12-18T10:37:15;17.63;;;13.15;;
62006;SDS011;47963;53.008;6.754;2022-12-18T10:39:43;17.35;;;13.43;;
62006;SDS011;47963;53.008;6.754;2022-12-18T10:42:18;16.58;;;13.40;;
62006;SDS011;47963;53.008;6.754;2022-12-18T10:44:44;17.65;;;13.40;;
62006;SDS011;47963;53.008;6.754;2022-12-18T10:47:12;16.27;;;12.80;;
62006;SDS011;47963;53.008;6.754;2022-12-18T10:49:49;16.20;;;12.38;;
62006;SDS011;47963;53.008;6.754;2022-12-18T10:52:21;18.55;;;14.43;;
62006;SDS011;47963;53.008;6.754;2022-12-18T10:54:59;31.95;;;22.30;;
62006;SDS011;47963;53.008;6.754;2022-12-18T10:57:38;37.72;;;24.48;;
62006;SDS011;47963;53.008;6.754;2022-12-18T11:02:50;25.10;;;17.75;;
62006;SDS011;47963;53.008;6.754;2022-12-18T11:05:26;17.27;;;13.63;;
62006;SDS011;47963;53.008;6.754;2022-12-18T11:07:57;14.98;;;11.93;;
62006;SDS011;47963;53.008;6.754;2022-12-18T11:10:35;16.42;;;11.73;;
62006;SDS011;47963;53.008;6.754;2022-12-18T11:13:17;16.13;;;11.80;;
62006;SDS011;47963;53.008;6.754;2022-12-18T11:15:46;15.38;;;11.52;;
62006;SDS011;47963;53.008;6.754;2022-12-18T11:18:45;14.93;;;11.25;;
62006;SDS011;47963;53.008;6.754;2022-12-18T11:21:07;16.27;;;12.75;;
62006;SDS011;47963;53.008;6.754;2022-12-18T11:23:35;15.07;;;11.00;;
62006;SDS011;47963;53.008;6.754;2022-12-18T11:26:02;14.93;;;11.35;;
62006;SDS011;47963;53.008;6.754;2022-12-18T11:31:40;14.35;;;10.50;;
62006;SDS011;47963;53.008;6.754;2022-12-18T11:34:13;14.50;;;11.20;;
62006;SDS011;47963;53.008;6.754;2022-12-18T11:36:44;14.90;;;10.65;;
62006;SDS011;47963;53.008;6.754;2022-12-18T11:39:16;13.68;;;10.05;;
62006;SDS011;47963;53.008;6.754;2022-12-18T11:44:38;14.90;;;10.10;;
62006;SDS011;47963;53.008;6.754;2022-12-18T11:47:12;13.82;;;10.18;;
62006;SDS011;47963;53.008;6.754;2022-12-18T11:50:00;13.57;;;9.68;;
62006;SDS011;47963;53.008;6.754;2022-12-18T11:52:28;13.63;;;9.98;;
62006;SDS011;47963;53.008;6.754;2022-12-18T12:00:36;16.10;;;13.57;;
62006;SDS011;47963;53.008;6.754;2022-12-18T12:03:20;12.73;;;9.98;;
62006;SDS011;47963;53.008;6.754;2022-12-18T12:06:22;15.13;;;10.30;;
62006;SDS011;47963;53.008;6.754;2022-12-18T12:09:14;14.23;;;9.80;;
62006;SDS011;47963;53.008;6.754;2022-12-18T12:15:13;12.90;;;9.55;;
62006;SDS011;47963;53.008;6.754;2022-12-18T12:26:01;12.52;;;8.50;;
62006;SDS011;47963;53.008;6.754;2022-12-18T12:32:15;13.70;;;9.23;;
62006;SDS011;47963;53.008;6.754;2022-12-18T12:35:07;12.38;;;9.20;;
62006;SDS011;47963;53.008;6.754;2022-12-18T12:40:27;12.85;;;9.48;;
62006;SDS011;47963;53.008;6.754;2022-12-18T12:42:55;13.27;;;8.75;;
62006;SDS011;47963;53.008;6.754;2022-12-18T12:45:41;11.65;;;8.10;;
62006;SDS011;47963;53.008;6.754;2022-12-18T12:51:17;13.95;;;9.25;;
62006;SDS011;47963;53.008;6.754;2022-12-18T12:53:49;13.50;;;9.50;;
62006;SDS011;47963;53.008;6.754;2022-12-18T12:56:17;12.82;;;9.30;;
62006;SDS011;47963;53.008;6.754;2022-12-18T13:04:32;12.88;;;8.93;;
62006;SDS011;47963;53.008;6.754;2022-12-18T13:12:54;11.88;;;8.50;;
62006;SDS011;47963;53.008;6.754;2022-12-18T13:16:03;12.77;;;9.52;;
62006;SDS011;47963;53.008;6.754;2022-12-18T13:18:50;12.93;;;9.55;;
62006;SDS011;47963;53.008;6.754;2022-12-18T13:28:22;16.65;;;12.77;;
62006;SDS011;47963;53.008;6.754;2022-12-18T13:31:04;14.68;;;11.13;;
62006;SDS011;47963;53.008;6.754;2022-12-18T13:33:37;15.43;;;10.57;;
62006;SDS011;47963;53.008;6.754;2022-12-18T13:39:30;21.80;;;16.92;;
62006;SDS011;47963;53.008;6.754;2022-12-18T13:45:58;21.85;;;15.85;;
62006;SDS011;47963;53.008;6.754;2022-12-18T13:48:53;17.92;;;14.18;;
62006;SDS011;47963;53.008;6.754;2022-12-18T13:51:46;12.57;;;9.27;;
62006;SDS011;47963;53.008;6.754;2022-12-18T13:57:02;15.38;;;12.65;;
62006;SDS011;47963;53.008;6.754;2022-12-18T14:01:59;15.23;;;11.45;;
62006;SDS011;47963;53.008;6.754;2022-12-18T14:12:01;14.27;;;11.02;;
62006;SDS011;47963;53.008;6.754;2022-12-18T14:14:47;14.02;;;10.50;;
62006;SDS011;47963;53.008;6.754;2022-12-18T14:20:51;18.63;;;14.77;;
62006;SDS011;47963;53.008;6.754;2022-12-18T14:26:02;14.18;;;11.23;;
62006;SDS011;47963;53.008;6.754;2022-12-18T14:28:44;14.45;;;11.13;;
62006;SDS011;47963;53.008;6.754;2022-12-18T14:31:43;13.80;;;10.85;;
62006;SDS011;47963;53.008;6.754;2022-12-18T14:34:01;14.77;;;11.10;;
62006;SDS011;47963;53.008;6.754;2022-12-18T14:36:28;15.02;;;11.43;;
62006;SDS011;47963;53.008;6.754;2022-12-18T14:38:58;16.48;;;12.65;;
62006;SDS011;47963;53.008;6.754;2022-12-18T14:41:24;16.35;;;12.60;;
62006;SDS011;47963;53.008;6.754;2022-12-18T14:43:51;14.63;;;11.38;;
62006;SDS011;47963;53.008;6.754;2022-12-18T14:46:34;14.93;;;11.35;;
62006;SDS011;47963;53.008;6.754;2022-12-18T14:51:49;15.40;;;11.77;;
62006;SDS011;47963;53.008;6.754;2022-12-18T14:54:17;17.48;;;12.98;;
62006;SDS011;47963;53.008;6.754;2022-12-18T14:56:45;16.77;;;12.82;;
62006;SDS011;47963;53.008;6.754;2022-12-18T14:59:13;19.42;;;13.85;;
62006;SDS011;47963;53.008;6.754;2022-12-18T15:01:45;18.10;;;12.65;;
62006;SDS011;47963;53.008;6.754;2022-12-18T15:04:32;18.05;;;14.45;;
62006;SDS011;47963;53.008;6.754;2022-12-18T15:10:03;15.95;;;12.43;;
62006;SDS011;47963;53.008;6.754;2022-12-18T15:12:35;14.45;;;12.10;;
62006;SDS011;47963;53.008;6.754;2022-12-18T15:15:04;16.03;;;12.30;;
62006;SDS011;47963;53.008;6.754;2022-12-18T15:18:00;15.43;;;11.52;;
62006;SDS011;47963;53.008;6.754;2022-12-18T15:20:32;16.92;;;12.93;;
62006;SDS011;47963;53.008;6.754;2022-12-18T15:25:54;16.98;;;12.35;;
62006;SDS011;47963;53.008;6.754;2022-12-18T15:28:26;18.23;;;13.70;;
62006;SDS011;47963;53.008;6.754;2022-12-18T15:33:40;18.10;;;13.75;;
62006;SDS011;47963;53.008;6.754;2022-12-18T15:36:11;16.48;;;13.70;;
62006;SDS011;47963;53.008;6.754;2022-12-18T15:38:38;17.77;;;13.40;;
62006;SDS011;47963;53.008;6.754;2022-12-18T15:41:04;16.05;;;13.40;;
62006;SDS011;47963;53.008;6.754;2022-12-18T15:43:34;16.40;;;13.82;;
62006;SDS011;47963;53.008;6.754;2022-12-18T15:46:04;16.30;;;13.73;;
62006;SDS011;47963;53.008;6.754;2022-12-18T15:48:34;17.50;;;13.75;;
62006;SDS011;47963;53.008;6.754;2022-12-18T15:51:04;16.50;;;13.52;;
62006;SDS011;47963;53.008;6.754;2022-12-18T15:53:35;16.88;;;13.32;;
62006;SDS011;47963;53.008;6.754;2022-12-18T15:56:01;17.58;;;14.00;;
62006;SDS011;47963;53.008;6.754;2022-12-18T15:58:45;17.13;;;13.45;;
62006;SDS011;47963;53.008;6.754;2022-12-18T16:01:11;17.27;;;14.20;;
62006;SDS011;47963;53.008;6.754;2022-12-18T16:03:37;18.13;;;14.43;;
62006;SDS011;47963;53.008;6.754;2022-12-18T16:06:03;16.10;;;13.38;;
62006;SDS011;47963;53.008;6.754;2022-12-18T16:08:29;15.95;;;12.80;;
62006;SDS011;47963;53.008;6.754;2022-12-18T16:10:55;16.33;;;13.20;;
62006;SDS011;47963;53.008;6.754;2022-12-18T16:13:22;16.63;;;13.18;;
62006;SDS011;47963;53.008;6.754;2022-12-18T16:15:48;16.52;;;12.60;;
62006;SDS011;47963;53.008;6.754;2022-12-18T16:18:14;21.88;;;17.42;;
62006;SDS011;47963;53.008;6.754;2022-12-18T16:20:39;24.15;;;20.13;;
62006;SDS011;47963;53.008;6.754;2022-12-18T16:23:05;21.13;;;17.90;;
62006;SDS011;47963;53.008;6.754;2022-12-18T16:25:31;18.83;;;14.40;;
62006;SDS011;47963;53.008;6.754;2022-12-18T16:27:57;19.45;;;15.50;;
62006;SDS011;47963;53.008;6.754;2022-12-18T16:30:24;19.52;;;16.13;;
62006;SDS011;47963;53.008;6.754;2022-12-18T16:32:52;18.38;;;14.45;;
62006;SDS011;47963;53.008;6.754;2022-12-18T16:35:18;17.75;;;14.68;;
62006;SDS011;47963;53.008;6.754;2022-12-18T16:37:45;20.30;;;16.00;;
62006;SDS011;47963;53.008;6.754;2022-12-18T16:40:12;19.63;;;16.13;;
62006;SDS011;47963;53.008;6.754;2022-12-18T16:42:40;18.75;;;15.02;;
62006;SDS011;47963;53.008;6.754;2022-12-18T16:45:07;20.90;;;17.35;;
62006;SDS011;47963;53.008;6.754;2022-12-18T16:47:34;23.40;;;18.60;;
62006;SDS011;47963;53.008;6.754;2022-12-18T16:50:00;20.80;;;17.02;;
62006;SDS011;47963;53.008;6.754;2022-12-18T16:52:26;22.42;;;18.00;;
62006;SDS011;47963;53.008;6.754;2022-12-18T16:54:52;19.60;;;15.95;;
62006;SDS011;47963;53.008;6.754;2022-12-18T16:57:18;24.85;;;19.08;;
62006;SDS011;47963;53.008;6.754;2022-12-18T16:59:45;31.35;;;23.52;;
62006;SDS011;47963;53.008;6.754;2022-12-18T17:02:21;17.73;;;14.60;;
62006;SDS011;47963;53.008;6.754;2022-12-18T17:04:48;29.42;;;20.48;;
62006;SDS011;47963;53.008;6.754;2022-12-18T17:07:14;37.35;;;26.60;;
62006;SDS011;47963;53.008;6.754;2022-12-18T17:09:40;22.60;;;16.80;;
62006;SDS011;47963;53.008;6.754;2022-12-18T17:12:06;25.02;;;18.35;;
62006;SDS011;47963;53.008;6.754;2022-12-18T17:14:32;19.08;;;14.55;;
62006;SDS011;47963;53.008;6.754;2022-12-18T17:17:02;29.08;;;22.23;;
62006;SDS011;47963;53.008;6.754;2022-12-18T17:23:00;17.10;;;13.52;;